sensor_id;sensor_type;location;lat;lon;timestamp;pressure;altitude;pressure_sealevel;temperature;humidity
44131;BME280;29792;48.726;9.248;2023-02-04T00:00:49;98099.00;;;7.34;100.00
44131;BME280;29792;48.726;9.248;2023-02-04T00:03:15;98089.56;;;7.36;100.00
44131;BME280;29792;48.726;9.248;2023-02-04T00:05:41;98087.91;;;7.35;100.00
44131;BME280;29792;48.726;9.248;2023-02-04T00:08:06;98098.09;;;7.35;100.00
44131;BME280;29792;48.726;9.248;2023-02-04T00:10:31;98088.03;;;7.32;100.00
44131;BME280;29792;48.726;9.248;2023-02-04T00:12:56;98081.41;;;7.30;100.00
44131;BME280;29792;48.726;9.248;2023-02-04T00:15:22;98080.56;;;7.29;100.00
44131;BME280;29792;48.726;9.248;2023-02-04T00:17:47;98091.72;;;7.26;100.00
44131;BME280;29792;48.726;9.248;2023-02-04T00:20:12;98089.19;;;7.26;100.00
44131;BME280;29792;48.726;9.248;2023-02-04T00:22:38;98074.88;;;7.24;100.00
44131;BME280;29792;48.726;9.248;2023-02-04T00:25:03;98073.22;;;7.23;100.00
44131;BME280;29792;48.726;9.248;2023-02-04T00:27:28;98085.13;;;7.22;100.00
44131;BME280;29792;48.726;9.248;2023-02-04T00:29:54;98076.75;;;7.20;100.00
44131;BME280;29792;48.726;9.248;2023-02-04T00:32:19;98074.22;;;7.20;100.00
44131;BME280;29792;48.726;9.248;2023-02-04T00:34:44;98081.84;;;7.20;100.00
44131;BME280;29792;48.726;9.248;2023-02-04T00:37:09;98081.91;;;7.19;100.00
44131;BME280;29792;48.726;9.248;2023-02-04T00:39:35;98087.84;;;7.19;100.00
44131;BME280;29792;48.726;9.248;2023-02-04T00:42:00;98094.41;;;7.23;100.00
44131;BME280;29792;48.726;9.248;2023-02-04T00:44:26;98095.09;;;7.27;100.00
44131;BME280;29792;48.726;9.248;2023-02-04T00:46:51;98100.13;;;7.28;100.00
44131;BME280;29792;48.726;9.248;2023-02-04T00:49:16;98104.22;;;7.31;100.00
44131;BME280;29792;48.726;9.248;2023-02-04T00:51:41;98102.31;;;7.36;100.00
44131;BME280;29792;48.726;9.248;2023-02-04T00:54:11;98096.13;;;7.40;100.00
44131;BME280;29792;48.726;9.248;2023-02-04T00:56:37;98106.19;;;7.43;100.00
44131;BME280;29792;48.726;9.248;2023-02-04T00:59:02;98096.56;;;7.48;100.00
44131;BME280;29792;48.726;9.248;2023-02-04T01:01:27;98109.19;;;7.51;100.00
44131;BME280;29792;48.726;9.248;2023-02-04T01:03:53;98112.63;;;7.50;100.00
44131;BME280;29792;48.726;9.248;2023-02-04T01:06:18;98114.41;;;7.48;100.00
44131;BME280;29792;48.726;9.248;2023-02-04T01:08:44;98118.69;;;7.48;100.00
44131;BME280;29792;48.726;9.248;2023-02-04T01:11:09;98133.16;;;7.47;100.00
44131;BME280;29792;48.726;9.248;2023-02-04T01:13:34;98134.81;;;7.48;100.00
44131;BME280;29792;48.726;9.248;2023-02-04T01:15:59;98132.34;;;7.47;100.00
44131;BME280;29792;48.726;9.248;2023-02-04T01:18:25;98128.06;;;7.47;100.00
44131;BME280;29792;48.726;9.248;2023-02-04T01:20:50;98126.41;;;7.46;100.00
44131;BME280;29792;48.726;9.248;2023-02-04T01:23:15;98124.69;;;7.47;100.00
44131;BME280;29792;48.726;9.248;2023-02-04T01:25:41;98121.47;;;7.43;100.00
44131;BME280;29792;48.726;9.248;2023-02-04T01:28:07;98128.50;;;7.38;100.00
44131;BME280;29792;48.726;9.248;2023-02-04T01:30:32;98130.34;;;7.36;100.00
44131;BME280;29792;48.726;9.248;2023-02-04T01:32:57;98136.34;;;7.35;100.00
44131;BME280;29792;48.726;9.248;2023-02-04T01:35:23;98155.06;;;7.34;100.00
44131;BME280;29792;48.726;9.248;2023-02-04T01:37:49;98149.91;;;7.36;100.00
44131;BME280;29792;48.726;9.248;2023-02-04T01:40:14;98153.41;;;7.33;100.00
44131;BME280;29792;48.726;9.248;2023-02-04T01:42:39;98159.28;;;7.35;100.00
44131;BME280;29792;48.726;9.248;2023-02-04T01:45:05;98165.13;;;7.37;100.00
44131;BME280;29792;48.726;9.248;2023-02-04T01:47:31;98165.25;;;7.34;100.00
44131;BME280;29792;48.726;9.248;2023-02-04T01:49:57;98155.91;;;7.35;100.00
44131;BME280;29792;48.726;9.248;2023-02-04T01:52:23;98150.88;;;7.33;100.00
44131;BME280;29792;48.726;9.248;2023-02-04T01:54:50;98146.84;;;7.29;100.00
44131;BME280;29792;48.726;9.248;2023-02-04T01:57:15;98155.75;;;7.20;100.00
44131;BME280;29792;48.726;9.248;2023-02-04T01:59:43;98150.84;;;7.16;100.00
44131;BME280;29792;48.726;9.248;2023-02-04T02:05:01;98156.13;;;7.13;100.00
44131;BME280;29792;48.726;9.248;2023-02-04T02:07:27;98167.19;;;7.12;100.00
44131;BME280;29792;48.726;9.248;2023-02-04T02:09:52;98159.63;;;7.10;100.00
44131;BME280;29792;48.726;9.248;2023-02-04T02:12:17;98165.53;;;7.11;100.00
44131;BME280;29792;48.726;9.248;2023-02-04T02:14:43;98169.06;;;7.08;100.00
44131;BME280;29792;48.726;9.248;2023-02-04T02:17:08;98173.31;;;7.08;100.00
44131;BME280;29792;48.726;9.248;2023-02-04T02:19:36;98174.16;;;7.08;100.00
44131;BME280;29792;48.726;9.248;2023-02-04T02:22:06;98172.34;;;7.10;100.00
44131;BME280;29792;48.726;9.248;2023-02-04T02:24:35;98186.06;;;7.08;100.00
44131;BME280;29792;48.726;9.248;2023-02-04T02:27:05;98184.50;;;7.05;100.00
44131;BME280;29792;48.726;9.248;2023-02-04T02:29:32;98188.84;;;7.03;100.00
44131;BME280;29792;48.726;9.248;2023-02-04T02:31:58;98187.38;;;6.98;100.00
44131;BME280;29792;48.726;9.248;2023-02-04T02:34:25;98193.41;;;6.97;100.00
44131;BME280;29792;48.726;9.248;2023-02-04T02:36:52;98196.97;;;6.93;100.00
44131;BME280;29792;48.726;9.248;2023-02-04T02:39:17;98196.19;;;6.90;100.00
44131;BME280;29792;48.726;9.248;2023-02-04T02:41:43;98210.81;;;6.87;100.00
44131;BME280;29792;48.726;9.248;2023-02-04T02:44:10;98204.97;;;6.85;100.00
44131;BME280;29792;48.726;9.248;2023-02-04T02:46:36;98200.81;;;6.82;100.00
44131;BME280;29792;48.726;9.248;2023-02-04T02:49:02;98185.63;;;6.81;100.00
44131;BME280;29792;48.726;9.248;2023-02-04T02:51:27;98190.81;;;6.79;100.00
44131;BME280;29792;48.726;9.248;2023-02-04T02:53:52;98195.19;;;6.76;100.00
44131;BME280;29792;48.726;9.248;2023-02-04T02:56:18;98196.97;;;6.74;100.00
44131;BME280;29792;48.726;9.248;2023-02-04T02:58:44;98204.78;;;6.71;100.00
44131;BME280;29792;48.726;9.248;2023-02-04T03:01:10;98203.19;;;6.68;100.00
44131;BME280;29792;48.726;9.248;2023-02-04T03:03:42;98201.59;;;6.66;100.00
44131;BME280;29792;48.726;9.248;2023-02-04T03:06:17;98196.66;;;6.63;100.00
44131;BME280;29792;48.726;9.248;2023-02-04T03:08:46;98205.38;;;6.57;100.00
44131;BME280;29792;48.726;9.248;2023-02-04T03:11:12;98206.41;;;6.53;100.00
44131;BME280;29792;48.726;9.248;2023-02-04T03:13:37;98213.22;;;6.53;100.00
44131;BME280;29792;48.726;9.248;2023-02-04T03:16:04;98216.66;;;6.51;100.00
44131;BME280;29792;48.726;9.248;2023-02-04T03:18:30;98219.97;;;6.54;100.00
44131;BME280;29792;48.726;9.248;2023-02-04T03:20:56;98231.03;;;6.53;100.00
44131;BME280;29792;48.726;9.248;2023-02-04T03:23:23;98232.75;;;6.52;100.00
44131;BME280;29792;48.726;9.248;2023-02-04T03:25:48;98229.38;;;6.51;100.00
44131;BME280;29792;48.726;9.248;2023-02-04T03:28:14;98235.25;;;6.54;100.00
44131;BME280;29792;48.726;9.248;2023-02-04T03:30:39;98247.97;;;6.54;100.00
44131;BME280;29792;48.726;9.248;2023-02-04T03:33:04;98254.78;;;6.53;100.00
44131;BME280;29792;48.726;9.248;2023-02-04T03:35:29;98253.13;;;6.52;100.00
44131;BME280;29792;48.726;9.248;2023-02-04T03:37:55;98256.50;;;6.53;100.00
44131;BME280;29792;48.726;9.248;2023-02-04T03:40:20;98262.47;;;6.51;100.00
44131;BME280;29792;48.726;9.248;2023-02-04T03:42:46;98263.38;;;6.50;100.00
44131;BME280;29792;48.726;9.248;2023-02-04T03:45:11;98260.75;;;6.52;100.00
44131;BME280;29792;48.726;9.248;2023-02-04T03:47:36;98263.31;;;6.52;100.00
44131;BME280;29792;48.726;9.248;2023-02-04T03:50:02;98269.22;;;6.53;100.00
44131;BME280;29792;48.726;9.248;2023-02-04T03:52:27;98269.16;;;6.54;100.00
44131;BME280;29792;48.726;9.248;2023-02-04T03:54:52;98274.25;;;6.54;100.00
44131;BME280;29792;48.726;9.248;2023-02-04T03:57:18;98275.06;;;6.55;100.00
44131;BME280;29792;48.726;9.248;2023-02-04T03:59:43;98278.56;;;6.52;100.00
44131;BME280;29792;48.726;9.248;2023-02-04T04:02:08;98286.28;;;6.50;100.00
44131;BME280;29792;48.726;9.248;2023-02-04T04:04:34;98292.19;;;6.51;100.00
44131;BME280;29792;48.726;9.248;2023-02-04T04:06:59;98283.88;;;6.47;100.00
44131;BME280;29792;48.726;9.248;2023-02-04T04:09:25;98288.19;;;6.45;100.00
44131;BME280;29792;48.726;9.248;2023-02-04T04:11:50;98293.22;;;6.47;100.00
44131;BME280;29792;48.726;9.248;2023-02-04T04:14:15;98294.94;;;6.46;100.00
44131;BME280;29792;48.726;9.248;2023-02-04T04:16:40;98289.91;;;6.45;100.00
44131;BME280;29792;48.726;9.248;2023-02-04T04:19:06;98283.94;;;6.46;100.00
44131;BME280;29792;48.726;9.248;2023-02-04T04:21:31;98280.63;;;6.44;100.00
44131;BME280;29792;48.726;9.248;2023-02-04T04:23:56;98288.19;;;6.45;100.00
44131;BME280;29792;48.726;9.248;2023-02-04T04:26:21;98281.41;;;6.46;100.00
44131;BME280;29792;48.726;9.248;2023-02-04T04:28:47;98289.16;;;6.43;100.00
44131;BME280;29792;48.726;9.248;2023-02-04T04:31:12;98283.16;;;6.44;100.00
44131;BME280;29792;48.726;9.248;2023-02-04T04:33:37;98288.31;;;6.42;100.00
44131;BME280;29792;48.726;9.248;2023-02-04T04:36:04;98291.69;;;6.43;100.00
44131;BME280;29792;48.726;9.248;2023-02-04T04:38:29;98293.41;;;6.42;100.00
44131;BME280;29792;48.726;9.248;2023-02-04T04:40:54;98289.16;;;6.43;100.00
44131;BME280;29792;48.726;9.248;2023-02-04T04:43:19;98295.06;;;6.43;100.00
44131;BME280;29792;48.726;9.248;2023-02-04T04:45:45;98298.50;;;6.42;100.00
44131;BME280;29792;48.726;9.248;2023-02-04T04:48:10;98305.31;;;6.42;100.00
44131;BME280;29792;48.726;9.248;2023-02-04T04:50:35;98312.94;;;6.42;100.00
44131;BME280;29792;48.726;9.248;2023-02-04T04:53:01;98314.59;;;6.43;100.00
44131;BME280;29792;48.726;9.248;2023-02-04T04:55:26;98316.25;;;6.44;100.00
44131;BME280;29792;48.726;9.248;2023-02-04T04:57:51;98306.97;;;6.43;100.00
44131;BME280;29792;48.726;9.248;2023-02-04T05:00:19;98311.09;;;6.45;100.00
44131;BME280;29792;48.726;9.248;2023-02-04T05:02:45;98304.34;;;6.44;100.00
44131;BME280;29792;48.726;9.248;2023-02-04T05:05:10;98296.84;;;6.41;100.00
44131;BME280;29792;48.726;9.248;2023-02-04T05:07:35;98302.09;;;6.38;100.00
44131;BME280;29792;48.726;9.248;2023-02-04T05:10:01;98313.16;;;6.37;100.00
44131;BME280;29792;48.726;9.248;2023-02-04T05:12:26;98314.88;;;6.37;100.00
44131;BME280;29792;48.726;9.248;2023-02-04T05:14:52;98312.25;;;6.38;100.00
44131;BME280;29792;48.726;9.248;2023-02-04T05:17:17;98315.63;;;6.39;100.00
44131;BME280;29792;48.726;9.248;2023-02-04T05:19:42;98302.97;;;6.37;100.00
44131;BME280;29792;48.726;9.248;2023-02-04T05:22:07;98311.50;;;6.36;100.00
44131;BME280;29792;48.726;9.248;2023-02-04T05:24:32;98314.16;;;6.33;100.00
44131;BME280;29792;48.726;9.248;2023-02-04T05:26:58;98313.31;;;6.33;100.00
44131;BME280;29792;48.726;9.248;2023-02-04T05:29:23;98309.16;;;6.32;100.00
44131;BME280;29792;48.726;9.248;2023-02-04T05:31:48;98314.34;;;6.29;100.00
44131;BME280;29792;48.726;9.248;2023-02-04T05:34:13;98325.41;;;6.28;100.00
44131;BME280;29792;48.726;9.248;2023-02-04T05:36:39;98324.75;;;6.24;100.00
44131;BME280;29792;48.726;9.248;2023-02-04T05:39:04;98331.53;;;6.24;100.00
44131;BME280;29792;48.726;9.248;2023-02-04T05:41:29;98339.09;;;6.25;100.00
44131;BME280;29792;48.726;9.248;2023-02-04T05:43:54;98329.00;;;6.24;100.00
44131;BME280;29792;48.726;9.248;2023-02-04T05:46:20;98328.16;;;6.23;100.00
44131;BME280;29792;48.726;9.248;2023-02-04T05:48:45;98323.19;;;6.20;100.00
44131;BME280;29792;48.726;9.248;2023-02-04T05:51:10;98330.94;;;6.17;100.00
44131;BME280;29792;48.726;9.248;2023-02-04T05:53:36;98332.66;;;6.17;100.00
44131;BME280;29792;48.726;9.248;2023-02-04T05:56:01;98334.47;;;6.15;100.00
44131;BME280;29792;48.726;9.248;2023-02-04T05:58:26;98325.19;;;6.13;100.00
44131;BME280;29792;48.726;9.248;2023-02-04T06:00:58;98324.47;;;6.10;100.00
44131;BME280;29792;48.726;9.248;2023-02-04T06:03:23;98327.06;;;6.08;100.00
44131;BME280;29792;48.726;9.248;2023-02-04T06:05:48;98327.97;;;6.07;100.00
44131;BME280;29792;48.726;9.248;2023-02-04T06:08:14;98332.28;;;6.05;100.00
44131;BME280;29792;48.726;9.248;2023-02-04T06:10:40;98347.56;;;6.05;100.00
44131;BME280;29792;48.726;9.248;2023-02-04T06:13:05;98353.47;;;6.06;100.00
44131;BME280;29792;48.726;9.248;2023-02-04T06:15:30;98359.38;;;6.06;100.00
44131;BME280;29792;48.726;9.248;2023-02-04T06:17:55;98362.75;;;6.07;100.00
44131;BME280;29792;48.726;9.248;2023-02-04T06:20:22;98372.09;;;6.06;100.00
44131;BME280;29792;48.726;9.248;2023-02-04T06:22:47;98375.53;;;6.05;100.00
44131;BME280;29792;48.726;9.248;2023-02-04T06:25:16;98388.31;;;6.04;100.00
44131;BME280;29792;48.726;9.248;2023-02-04T06:27:41;98385.75;;;6.04;100.00
44131;BME280;29792;48.726;9.248;2023-02-04T06:30:07;98395.09;;;6.03;100.00
44131;BME280;29792;48.726;9.248;2023-02-04T06:32:32;98399.41;;;6.01;100.00
44131;BME280;29792;48.726;9.248;2023-02-04T06:34:57;98391.72;;;6.03;100.00
44131;BME280;29792;48.726;9.248;2023-02-04T06:37:23;98403.56;;;6.04;100.00
44131;BME280;29792;48.726;9.248;2023-02-04T06:39:48;98394.22;;;6.04;100.00
44131;BME280;29792;48.726;9.248;2023-02-04T06:42:13;98397.66;;;6.03;100.00
44131;BME280;29792;48.726;9.248;2023-02-04T06:44:38;98390.94;;;6.01;100.00
44131;BME280;29792;48.726;9.248;2023-02-04T06:47:03;98408.06;;;5.97;100.00
44131;BME280;29792;48.726;9.248;2023-02-04T06:49:29;98406.34;;;5.98;100.00
44131;BME280;29792;48.726;9.248;2023-02-04T06:51:54;98408.00;;;5.99;100.00
44131;BME280;29792;48.726;9.248;2023-02-04T06:54:20;98408.75;;;6.01;100.00
44131;BME280;29792;48.726;9.248;2023-02-04T06:56:45;98409.59;;;6.01;100.00
44131;BME280;29792;48.726;9.248;2023-02-04T06:59:10;98413.00;;;6.00;100.00
44131;BME280;29792;48.726;9.248;2023-02-04T07:01:36;98424.09;;;5.99;100.00
44131;BME280;29792;48.726;9.248;2023-02-04T07:04:01;98436.00;;;5.99;100.00
44131;BME280;29792;48.726;9.248;2023-02-04T07:06:26;98433.34;;;6.00;100.00
44131;BME280;29792;48.726;9.248;2023-02-04T07:08:52;98434.19;;;6.01;100.00
44131;BME280;29792;48.726;9.248;2023-02-04T07:11:17;98424.00;;;6.01;100.00
44131;BME280;29792;48.726;9.248;2023-02-04T07:13:42;98433.34;;;6.00;100.00
44131;BME280;29792;48.726;9.248;2023-02-04T07:16:07;98429.19;;;5.99;100.00
44131;BME280;29792;48.726;9.248;2023-02-04T07:18:32;98443.66;;;5.97;100.00
44131;BME280;29792;48.726;9.248;2023-02-04T07:20:58;98437.75;;;5.97;100.00
44131;BME280;29792;48.726;9.248;2023-02-04T07:23:23;98449.53;;;5.99;100.00
44131;BME280;29792;48.726;9.248;2023-02-04T07:25:49;98448.56;;;6.02;100.00
44131;BME280;29792;48.726;9.248;2023-02-04T07:28:17;98454.53;;;6.01;100.00
44131;BME280;29792;48.726;9.248;2023-02-04T07:30:42;98465.53;;;6.01;100.00
44131;BME280;29792;48.726;9.248;2023-02-04T07:33:08;98483.34;;;6.01;100.00
44131;BME280;29792;48.726;9.248;2023-02-04T07:35:33;98470.63;;;6.01;100.00
44131;BME280;29792;48.726;9.248;2023-02-04T07:37:58;98473.06;;;6.04;100.00
44131;BME280;29792;48.726;9.248;2023-02-04T07:40:23;98478.09;;;6.06;100.00
44131;BME280;29792;48.726;9.248;2023-02-04T07:42:48;98473.06;;;6.04;100.00
44131;BME280;29792;48.726;9.248;2023-02-04T07:45:14;98477.28;;;6.05;100.00
44131;BME280;29792;48.726;9.248;2023-02-04T07:47:39;98483.25;;;6.04;100.00
44131;BME280;29792;48.726;9.248;2023-02-04T07:50:05;98475.59;;;6.04;100.00
44131;BME280;29792;48.726;9.248;2023-02-04T07:52:30;98485.78;;;6.04;100.00
44131;BME280;29792;48.726;9.248;2023-02-04T07:54:55;98485.78;;;6.04;100.00
44131;BME280;29792;48.726;9.248;2023-02-04T07:57:20;98491.69;;;6.05;100.00
44131;BME280;29792;48.726;9.248;2023-02-04T07:59:46;98485.00;;;6.02;100.00
44131;BME280;29792;48.726;9.248;2023-02-04T08:02:11;98490.09;;;6.02;100.00
44131;BME280;29792;48.726;9.248;2023-02-04T08:04:36;98497.78;;;6.01;100.00
44131;BME280;29792;48.726;9.248;2023-02-04T08:07:05;98502.94;;;5.99;100.00
44131;BME280;29792;48.726;9.248;2023-02-04T08:09:30;98506.38;;;5.98;100.00
44131;BME280;29792;48.726;9.248;2023-02-04T08:11:55;98516.53;;;5.98;100.00
44131;BME280;29792;48.726;9.248;2023-02-04T08:14:21;98515.66;;;5.99;100.00
44131;BME280;29792;48.726;9.248;2023-02-04T08:16:46;98520.75;;;5.99;100.00
44131;BME280;29792;48.726;9.248;2023-02-04T08:19:12;98520.00;;;5.96;100.00
44131;BME280;29792;48.726;9.248;2023-02-04T08:21:46;98526.72;;;5.98;100.00
44131;BME280;29792;48.726;9.248;2023-02-04T08:24:12;98520.66;;;6.01;100.00
44131;BME280;29792;48.726;9.248;2023-02-04T08:26:39;98518.84;;;6.04;100.00
44131;BME280;29792;48.726;9.248;2023-02-04T08:29:04;98519.56;;;6.08;100.00
44131;BME280;29792;48.726;9.248;2023-02-04T08:31:30;98528.78;;;6.10;100.00
44131;BME280;29792;48.726;9.248;2023-02-04T08:33:55;98540.38;;;6.18;100.00
44131;BME280;29792;48.726;9.248;2023-02-04T08:36:20;98531.63;;;6.25;100.00
44131;BME280;29792;48.726;9.248;2023-02-04T08:38:45;98529.69;;;6.31;100.00
44131;BME280;29792;48.726;9.248;2023-02-04T08:41:11;98528.72;;;6.34;100.00
44131;BME280;29792;48.726;9.248;2023-02-04T08:43:36;98531.28;;;6.34;100.00
44131;BME280;29792;48.726;9.248;2023-02-04T08:46:02;98537.13;;;6.36;100.00
44131;BME280;29792;48.726;9.248;2023-02-04T08:48:27;98540.50;;;6.36;100.00
44131;BME280;29792;48.726;9.248;2023-02-04T08:50:52;98542.22;;;6.36;100.00
44131;BME280;29792;48.726;9.248;2023-02-04T08:53:18;98542.06;;;6.40;100.00
44131;BME280;29792;48.726;9.248;2023-02-04T08:55:43;98548.75;;;6.43;100.00
44131;BME280;29792;48.726;9.248;2023-02-04T08:58:08;98543.59;;;6.44;100.00
44131;BME280;29792;48.726;9.248;2023-02-04T09:00:33;98549.41;;;6.48;100.00
44131;BME280;29792;48.726;9.248;2023-02-04T09:02:59;98547.59;;;6.50;100.00
44131;BME280;29792;48.726;9.248;2023-02-04T09:05:24;98555.13;;;6.53;100.00
44131;BME280;29792;48.726;9.248;2023-02-04T09:07:49;98563.94;;;6.66;100.00
44131;BME280;29792;48.726;9.248;2023-02-04T09:10:15;98556.66;;;6.79;100.00
44131;BME280;29792;48.726;9.248;2023-02-04T09:12:40;98560.50;;;6.89;100.00
44131;BME280;29792;48.726;9.248;2023-02-04T09:15:08;98565.03;;;7.03;100.00
44131;BME280;29792;48.726;9.248;2023-02-04T09:17:34;98568.94;;;7.11;100.00
44131;BME280;29792;48.726;9.248;2023-02-04T09:20:00;98571.22;;;7.17;100.00
44131;BME280;29792;48.726;9.248;2023-02-04T09:22:25;98568.66;;;7.17;100.00
44131;BME280;29792;48.726;9.248;2023-02-04T09:24:50;98571.09;;;7.20;100.00
44131;BME280;29792;48.726;9.248;2023-02-04T09:27:16;98569.19;;;7.25;100.00
44131;BME280;29792;48.726;9.248;2023-02-04T09:29:41;98575.72;;;7.31;100.00
44131;BME280;29792;48.726;9.248;2023-02-04T09:32:06;98584.59;;;7.43;100.00
44131;BME280;29792;48.726;9.248;2023-02-04T09:34:31;98584.56;;;7.63;100.00
44131;BME280;29792;48.726;9.248;2023-02-04T09:36:57;98590.47;;;7.84;100.00
44131;BME280;29792;48.726;9.248;2023-02-04T09:39:22;98589.44;;;7.88;100.00
44131;BME280;29792;48.726;9.248;2023-02-04T09:41:47;98594.19;;;7.95;100.00
44131;BME280;29792;48.726;9.248;2023-02-04T09:44:18;98595.34;;;8.09;100.00
44131;BME280;29792;48.726;9.248;2023-02-04T09:46:50;98599.94;;;8.19;100.00
44131;BME280;29792;48.726;9.248;2023-02-04T09:49:16;98595.81;;;8.35;100.00
44131;BME280;29792;48.726;9.248;2023-02-04T09:51:42;98603.22;;;8.41;99.06
44131;BME280;29792;48.726;9.248;2023-02-04T09:54:13;98602.28;;;8.61;99.37
44131;BME280;29792;48.726;9.248;2023-02-04T09:56:39;98605.53;;;8.84;98.14
44131;BME280;29792;48.726;9.248;2023-02-04T09:59:19;98610.88;;;9.13;96.83
44131;BME280;29792;48.726;9.248;2023-02-04T10:01:51;98609.44;;;9.25;93.96
44131;BME280;29792;48.726;9.248;2023-02-04T10:04:20;98609.22;;;9.47;94.37
44131;BME280;29792;48.726;9.248;2023-02-04T10:06:46;98612.44;;;9.68;92.59
44131;BME280;29792;48.726;9.248;2023-02-04T10:09:13;98611.56;;;9.84;91.81
44131;BME280;29792;48.726;9.248;2023-02-04T10:11:40;98614.25;;;10.14;90.41
44131;BME280;29792;48.726;9.248;2023-02-04T10:14:11;98619.34;;;10.31;86.96
44131;BME280;29792;48.726;9.248;2023-02-04T10:16:39;98608.69;;;10.55;85.43
44131;BME280;29792;48.726;9.248;2023-02-04T10:19:11;98603.06;;;10.80;85.32
44131;BME280;29792;48.726;9.248;2023-02-04T10:21:38;98597.66;;;11.00;82.38
44131;BME280;29792;48.726;9.248;2023-02-04T10:24:10;98611.66;;;11.24;82.30
44131;BME280;29792;48.726;9.248;2023-02-04T10:26:37;98607.88;;;11.60;82.34
44131;BME280;29792;48.726;9.248;2023-02-04T10:29:05;98601.63;;;12.08;79.34
44131;BME280;29792;48.726;9.248;2023-02-04T10:31:34;98607.91;;;12.16;74.81
44131;BME280;29792;48.726;9.248;2023-02-04T10:36:27;98600.41;;;11.85;72.54
44131;BME280;29792;48.726;9.248;2023-02-04T10:39:03;98591.88;;;12.13;72.82
44131;BME280;29792;48.726;9.248;2023-02-04T10:41:29;98592.50;;;13.11;71.76
44131;BME280;29792;48.726;9.248;2023-02-04T10:44:06;98597.00;;;14.60;67.39
44131;BME280;29792;48.726;9.248;2023-02-04T10:46:33;98600.19;;;14.27;60.45
44131;BME280;29792;48.726;9.248;2023-02-04T10:48:58;98594.53;;;13.33;59.18
44131;BME280;29792;48.726;9.248;2023-02-04T10:51:24;98587.41;;;12.43;59.73
44131;BME280;29792;48.726;9.248;2023-02-04T10:53:49;98595.06;;;11.74;61.48
44131;BME280;29792;48.726;9.248;2023-02-04T10:56:33;98605.31;;;11.16;62.90
44131;BME280;29792;48.726;9.248;2023-02-04T10:58:58;98605.22;;;10.71;64.74
44131;BME280;29792;48.726;9.248;2023-02-04T11:01:25;98596.97;;;10.35;66.43
44131;BME280;29792;48.726;9.248;2023-02-04T11:03:52;98603.44;;;10.09;67.83
44131;BME280;29792;48.726;9.248;2023-02-04T11:06:21;98597.72;;;9.88;69.23
44131;BME280;29792;48.726;9.248;2023-02-04T11:08:47;98599.81;;;9.65;70.11
44131;BME280;29792;48.726;9.248;2023-02-04T11:11:24;98605.22;;;9.41;71.04
44131;BME280;29792;48.726;9.248;2023-02-04T11:18:51;98607.19;;;9.19;74.30
44131;BME280;29792;48.726;9.248;2023-02-04T11:26:42;98605.91;;;9.10;75.54
44131;BME280;29792;48.726;9.248;2023-02-04T11:29:30;98605.78;;;9.13;76.15
44131;BME280;29792;48.726;9.248;2023-02-04T11:34:48;98608.22;;;9.67;77.47
44131;BME280;29792;48.726;9.248;2023-02-04T11:39:57;98585.53;;;11.76;75.89
44131;BME280;29792;48.726;9.248;2023-02-04T11:42:38;98589.47;;;12.38;70.52
44131;BME280;29792;48.726;9.248;2023-02-04T11:45:19;98587.63;;;13.07;67.91
44131;BME280;29792;48.726;9.248;2023-02-04T11:47:45;98578.16;;;13.34;64.33
44131;BME280;29792;48.726;9.248;2023-02-04T11:50:22;98588.31;;;13.23;62.17
44131;BME280;29792;48.726;9.248;2023-02-04T11:52:49;98590.34;;;12.78;61.07
44131;BME280;29792;48.726;9.248;2023-02-04T11:55:15;98596.38;;;12.23;62.62
44131;BME280;29792;48.726;9.248;2023-02-04T11:57:42;98593.81;;;11.81;63.82
44131;BME280;29792;48.726;9.248;2023-02-04T12:00:16;98589.34;;;11.40;64.12
44131;BME280;29792;48.726;9.248;2023-02-04T12:03:00;98593.28;;;11.02;65.63
44131;BME280;29792;48.726;9.248;2023-02-04T12:05:41;98601.25;;;10.66;66.69
44131;BME280;29792;48.726;9.248;2023-02-04T12:08:24;98600.72;;;10.29;67.47
44131;BME280;29792;48.726;9.248;2023-02-04T12:11:00;98608.00;;;10.04;68.06
44131;BME280;29792;48.726;9.248;2023-02-04T12:13:27;98606.53;;;9.83;69.77
44131;BME280;29792;48.726;9.248;2023-02-04T12:16:04;98610.84;;;9.65;71.04
44131;BME280;29792;48.726;9.248;2023-02-04T12:18:31;98607.84;;;9.57;71.94
44131;BME280;29792;48.726;9.248;2023-02-04T12:20:57;98613.78;;;9.57;72.73
44131;BME280;29792;48.726;9.248;2023-02-04T12:23:24;98609.75;;;9.53;72.16
44131;BME280;29792;48.726;9.248;2023-02-04T12:25:49;98614.03;;;9.53;72.52
44131;BME280;29792;48.726;9.248;2023-02-04T12:28:15;98608.97;;;9.51;71.45
44131;BME280;29792;48.726;9.248;2023-02-04T12:30:40;98616.44;;;9.56;71.54
44131;BME280;29792;48.726;9.248;2023-02-04T12:33:05;98620.63;;;9.74;73.18
44131;BME280;29792;48.726;9.248;2023-02-04T12:35:32;98620.25;;;9.98;73.79
44131;BME280;29792;48.726;9.248;2023-02-04T12:37:57;98614.44;;;10.11;71.73
44131;BME280;29792;48.726;9.248;2023-02-04T12:40:22;98615.66;;;10.21;70.71
44131;BME280;29792;48.726;9.248;2023-02-04T12:42:48;98615.13;;;10.30;69.72
44131;BME280;29792;48.726;9.248;2023-02-04T12:45:15;98608.41;;;10.45;70.00
44131;BME280;29792;48.726;9.248;2023-02-04T12:47:40;98602.66;;;10.56;68.96
44131;BME280;29792;48.726;9.248;2023-02-04T12:50:07;98613.94;;;10.53;67.76
44131;BME280;29792;48.726;9.248;2023-02-04T12:52:32;98615.91;;;10.48;68.04
44131;BME280;29792;48.726;9.248;2023-02-04T12:54:58;98622.09;;;10.44;67.23
44131;BME280;29792;48.726;9.248;2023-02-04T12:57:26;98616.66;;;10.35;67.77
44131;BME280;29792;48.726;9.248;2023-02-04T12:59:51;98618.03;;;10.24;68.00
44131;BME280;29792;48.726;9.248;2023-02-04T13:02:16;98619.94;;;10.21;68.95
44131;BME280;29792;48.726;9.248;2023-02-04T13:04:42;98626.47;;;10.26;69.18
44131;BME280;29792;48.726;9.248;2023-02-04T13:07:08;98622.31;;;10.24;68.29
44131;BME280;29792;48.726;9.248;2023-02-04T13:09:34;98612.56;;;10.30;69.63
44131;BME280;29792;48.726;9.248;2023-02-04T13:11:59;98611.44;;;10.52;70.07
44131;BME280;29792;48.726;9.248;2023-02-04T13:14:24;98607.53;;;10.76;69.56
44131;BME280;29792;48.726;9.248;2023-02-04T13:16:50;98616.28;;;10.88;67.99